Time;durP1;ratioP1;P1;durP2;ratioP2;P2;SDS_P1;SDS_P2;PMS_P1;PMS_P2;Temp;Humidity;BMP_temperature;BMP_pressure;BME280_temperature;BME280_humidity;BME280_pressure;Samples;Min_cycle;Max_cycle;Signal;HPM_P1;HPM_P2
2023/05/10 00:02:26;;;;;;;19.83;4.15;;;;;;;;;;5054997;28;20040;-45
2023/05/10 00:04:55;;;;;;;18.58;4.30;;;;;;;;;;5046370;28;20048;-47
2023/05/10 00:07:23;;;;;;;15.93;4.28;;;;;;;;;;5046222;28;20037;-49
2023/05/10 00:09:50;;;;;;;12.07;3.30;;;;;;;;;;5050374;28;20044;-48
2023/05/10 00:12:18;;;;;;;12.43;3.47;;;;;;;;;;5051345;28;20465;-46
2023/05/10 00:14:46;;;;;;;15.07;3.83;;;;;;;;;;5047905;28;20160;-49
2023/05/10 00:17:13;;;;;;;12.77;3.72;;;;;;;;;;5055700;28;20056;-46
2023/05/10 00:19:41;;;;;;;20.73;3.35;;;;;;;;;;5049432;28;20055;-48
2023/05/10 00:22:10;;;;;;;14.50;3.45;;;;;;;;;;5044673;28;20045;-47
2023/05/10 00:24:37;;;;;;;15.10;3.20;;;;;;;;;;5042925;28;20132;-45
2023/05/10 00:27:05;;;;;;;15.68;3.10;;;;;;;;;;5044257;28;20109;-48
2023/05/10 00:29:33;;;;;;;11.50;2.90;;;;;;;;;;5051996;28;20075;-47
2023/05/10 00:32:01;;;;;;;11.30;3.25;;;;;;;;;;5047455;28;20068;-47
2023/05/10 00:34:28;;;;;;;8.85;3.13;;;;;;;;;;5052946;28;20162;-46
2023/05/10 00:36:56;;;;;;;14.00;2.93;;;;;;;;;;5046700;28;20052;-46
2023/05/10 00:39:26;;;;;;;13.68;3.85;;;;;;;;;;5053492;28;20040;-46
2023/05/10 00:41:54;;;;;;;14.23;2.97;;;;;;;;;;5050630;28;20371;-48
2023/05/10 00:44:22;;;;;;;12.77;2.63;;;;;;;;;;5040846;28;21133;-46
2023/05/10 00:46:50;;;;;;;11.38;2.72;;;;;;;;;;5050084;28;20131;-50
2023/05/10 00:49:18;;;;;;;8.63;2.73;;;;;;;;;;5051941;28;20068;-46
2023/05/10 00:51:46;;;;;;;10.52;2.10;;;;;;;;;;5057397;28;20041;-46
2023/05/10 00:54:14;;;;;;;6.55;2.50;;;;;;;;;;5047853;28;20114;-46
2023/05/10 00:56:48;;;;;;;13.73;2.70;;;;;;;;;;5048837;28;20044;-49
2023/05/10 00:59:17;;;;;;;8.50;2.63;;;;;;;;;;5050427;28;20037;-49
2023/05/10 01:01:45;;;;;;;7.17;1.80;;;;;;;;;;5049930;28;20037;-47
2023/05/10 01:04:14;;;;;;;11.10;1.90;;;;;;;;;;5054692;28;20044;-47
2023/05/10 01:06:44;;;;;;;9.27;2.78;;;;;;;;;;5050105;28;20417;-47
2023/05/10 01:09:12;;;;;;;11.77;2.33;;;;;;;;;;5045148;28;20037;-48
2023/05/10 01:11:40;;;;;;;9.32;2.13;;;;;;;;;;5054541;28;20123;-49
2023/05/10 01:14:10;;;;;;;7.57;1.77;;;;;;;;;;5051693;28;20136;-45
2023/05/10 01:16:39;;;;;;;9.90;1.77;;;;;;;;;;5045296;28;20119;-47
2023/05/10 01:19:07;;;;;;;8.88;1.95;;;;;;;;;;5050343;28;21171;-46
2023/05/10 01:21:38;;;;;;;6.80;1.70;;;;;;;;;;5039799;28;20055;-47
2023/05/10 01:24:13;;;;;;;8.75;1.80;;;;;;;;;;5048702;28;20037;-48
2023/05/10 01:26:58;;;;;;;9.30;1.93;;;;;;;;;;5054968;28;20036;-47
2023/05/10 01:29:39;;;;;;;10.77;1.90;;;;;;;;;;5041618;28;20125;-48
2023/05/10 01:32:16;;;;;;;9.77;2.30;;;;;;;;;;5051868;28;20350;-48
2023/05/10 01:34:48;;;;;;;12.13;2.45;;;;;;;;;;5054709;28;20103;-46
2023/05/10 01:37:20;;;;;;;12.57;2.08;;;;;;;;;;5054520;28;20487;-50
2023/05/10 01:39:55;;;;;;;8.87;2.07;;;;;;;;;;5047018;28;20115;-48
2023/05/10 01:42:26;;;;;;;12.90;2.40;;;;;;;;;;5056247;28;20120;-50
2023/05/10 01:44:59;;;;;;;10.65;2.53;;;;;;;;;;5041306;28;20591;-45
2023/05/10 01:47:31;;;;;;;11.48;2.63;;;;;;;;;;5049898;28;20083;-47
2023/05/10 01:50:03;;;;;;;10.80;2.70;;;;;;;;;;5051809;28;20037;-46
2023/05/10 01:52:32;;;;;;;10.43;2.70;;;;;;;;;;5058149;28;20135;-51
2023/05/10 01:55:02;;;;;;;11.45;2.97;;;;;;;;;;5044041;28;20126;-47
2023/05/10 01:57:33;;;;;;;13.70;3.00;;;;;;;;;;5053039;28;20207;-48
2023/05/10 02:00:02;;;;;;;11.00;3.20;;;;;;;;;;5045334;28;20562;-50
2023/05/10 02:02:34;;;;;;;14.68;3.72;;;;;;;;;;5052653;28;20094;-49
2023/05/10 02:05:02;;;;;;;13.83;3.70;;;;;;;;;;5045353;28;20055;-46
2023/05/10 02:07:30;;;;;;;12.55;3.88;;;;;;;;;;5051994;28;20417;-48
2023/05/10 02:09:59;;;;;;;14.65;4.85;;;;;;;;;;5050222;28;20040;-45
2023/05/10 02:12:27;;;;;;;21.98;4.43;;;;;;;;;;5053406;28;20032;-46
2023/05/10 02:14:55;;;;;;;14.70;4.70;;;;;;;;;;5034185;28;20044;-45
2023/05/10 02:17:24;;;;;;;20.77;5.27;;;;;;;;;;5054099;28;20086;-48
2023/05/10 02:19:54;;;;;;;16.20;4.88;;;;;;;;;;5049083;28;20113;-47
2023/05/10 02:22:22;;;;;;;19.92;4.88;;;;;;;;;;5047189;28;20055;-48
2023/05/10 02:24:50;;;;;;;16.83;4.78;;;;;;;;;;5049106;28;20123;-47
2023/05/10 02:27:20;;;;;;;18.92;4.82;;;;;;;;;;5053279;28;20040;-47
2023/05/10 02:29:49;;;;;;;21.23;5.23;;;;;;;;;;5050548;28;20044;-46
2023/05/10 02:32:17;;;;;;;16.25;5.47;;;;;;;;;;5045784;28;20072;-45
2023/05/10 02:34:46;;;;;;;21.13;5.18;;;;;;;;;;5048245;28;20071;-46
2023/05/10 02:37:16;;;;;;;18.98;5.63;;;;;;;;;;5050686;28;20397;-47
2023/05/10 02:39:45;;;;;;;24.83;5.20;;;;;;;;;;5036440;28;21117;-46
2023/05/10 02:42:15;;;;;;;17.60;6.10;;;;;;;;;;5050173;28;20052;-49
2023/05/10 02:44:44;;;;;;;26.23;6.63;;;;;;;;;;5045668;28;20064;-47
2023/05/10 02:47:11;;;;;;;19.55;6.30;;;;;;;;;;5048392;28;20043;-46
2023/05/10 02:49:39;;;;;;;24.45;6.80;;;;;;;;;;5052853;28;20040;-51
2023/05/10 02:52:08;;;;;;;22.60;6.68;;;;;;;;;;5048528;28;20319;-47
2023/05/10 02:54:40;;;;;;;19.57;6.27;;;;;;;;;;5029559;28;20048;-48
2023/05/10 02:57:09;;;;;;;22.45;6.57;;;;;;;;;;5048872;28;20045;-48
2023/05/10 02:59:37;;;;;;;21.42;7.55;;;;;;;;;;5084197;28;20048;-47
2023/05/10 03:02:05;;;;;;;27.45;7.47;;;;;;;;;;5035396;28;20090;-46
2023/05/10 03:04:33;;;;;;;26.75;6.72;;;;;;;;;;5032160;28;20041;-46
2023/05/10 03:07:01;;;;;;;24.30;7.67;;;;;;;;;;5046853;28;20040;-51
2023/05/10 03:09:28;;;;;;;29.73;7.70;;;;;;;;;;5040099;28;20064;-46
2023/05/10 03:12:04;;;;;;;29.17;8.32;;;;;;;;;;5047266;28;20040;-46
2023/05/10 03:14:40;;;;;;;35.63;8.02;;;;;;;;;;5045688;28;20464;-48
2023/05/10 03:17:11;;;;;;;25.98;8.35;;;;;;;;;;5079039;28;20041;-48
2023/05/10 03:19:43;;;;;;;37.77;8.83;;;;;;;;;;5042422;28;20123;-48
2023/05/10 03:22:12;;;;;;;22.00;7.03;;;;;;;;;;5045146;28;20051;-48
2023/05/10 03:24:40;;;;;;;29.23;7.72;;;;;;;;;;5036802;28;21375;-46
2023/05/10 03:27:09;;;;;;;32.88;7.28;;;;;;;;;;5033448;28;20036;-46
2023/05/10 03:29:37;;;;;;;25.50;7.47;;;;;;;;;;5052428;28;20507;-46
2023/05/10 03:32:05;;;;;;;28.17;7.33;;;;;;;;;;5036500;28;20052;-47
2023/05/10 03:34:32;;;;;;;28.58;8.02;;;;;;;;;;5043829;28;20478;-46
2023/05/10 03:37:00;;;;;;;25.48;8.27;;;;;;;;;;5037762;28;20067;-47
2023/05/10 03:39:27;;;;;;;35.92;8.70;;;;;;;;;;5040491;28;20529;-46
2023/05/10 03:41:55;;;;;;;22.88;7.20;;;;;;;;;;5034268;28;20552;-49
2023/05/10 03:44:24;;;;;;;37.27;8.03;;;;;;;;;;5046978;28;20048;-47
2023/05/10 03:46:52;;;;;;;26.77;7.35;;;;;;;;;;5034586;28;20116;-47
2023/05/10 03:49:19;;;;;;;23.67;7.00;;;;;;;;;;5041783;28;20040;-47
2023/05/10 03:51:47;;;;;;;25.92;7.65;;;;;;;;;;5045946;28;20040;-45
2023/05/10 03:54:15;;;;;;;25.35;6.43;;;;;;;;;;5029695;28;20041;-46
2023/05/10 03:56:42;;;;;;;25.93;7.17;;;;;;;;;;5044149;28;20139;-50
2023/05/10 03:59:10;;;;;;;24.98;6.85;;;;;;;;;;5042134;28;20816;-47
2023/05/10 04:01:39;;;;;;;26.60;7.32;;;;;;;;;;5045290;28;20047;-48
2023/05/10 04:04:06;;;;;;;26.15;6.82;;;;;;;;;;5043980;28;20331;-50
2023/05/10 04:06:34;;;;;;;25.08;6.03;;;;;;;;;;5045820;28;20060;-46
2023/05/10 04:09:04;;;;;;;24.17;6.73;;;;;;;;;;5040712;28;20469;-46
2023/05/10 04:11:31;;;;;;;33.78;7.60;;;;;;;;;;5042687;28;20417;-49
2023/05/10 04:13:59;;;;;;;25.85;6.95;;;;;;;;;;5037706;28;20558;-48
2023/05/10 04:16:27;;;;;;;25.90;7.32;;;;;;;;;;5043142;28;20116;-49
2023/05/10 04:18:56;;;;;;;21.63;6.57;;;;;;;;;;5029524;28;20128;-47
2023/05/10 04:21:24;;;;;;;27.37;6.40;;;;;;;;;;5044082;28;20139;-46
2023/05/10 04:23:54;;;;;;;24.42;8.00;;;;;;;;;;5048656;28;20041;-46
2023/05/10 04:26:21;;;;;;;23.42;7.20;;;;;;;;;;5044573;28;20136;-46
2023/05/10 04:28:49;;;;;;;28.95;7.10;;;;;;;;;;5044167;28;20037;-45
2023/05/10 04:31:17;;;;;;;20.65;6.93;;;;;;;;;;5027750;28;20141;-45
2023/05/10 04:33:44;;;;;;;33.90;8.80;;;;;;;;;;5043821;28;20356;-47
2023/05/10 04:36:13;;;;;;;25.50;8.25;;;;;;;;;;5037417;28;20063;-47
2023/05/10 04:38:42;;;;;;;25.77;7.97;;;;;;;;;;5034721;28;20072;-47
2023/05/10 04:41:10;;;;;;;29.52;8.48;;;;;;;;;;5037993;28;20090;-47
2023/05/10 04:43:38;;;;;;;23.05;7.80;;;;;;;;;;5033378;28;20125;-47
2023/05/10 04:46:06;;;;;;;28.80;8.87;;;;;;;;;;5036900;28;20041;-49
2023/05/10 04:48:35;;;;;;;22.23;7.28;;;;;;;;;;5037893;28;20530;-48
2023/05/10 04:51:03;;;;;;;27.80;7.72;;;;;;;;;;5045227;28;20515;-46
2023/05/10 04:53:32;;;;;;;21.98;6.75;;;;;;;;;;5053110;28;20048;-46
2023/05/10 04:56:00;;;;;;;27.60;7.50;;;;;;;;;;5042153;28;20596;-48
2023/05/10 04:58:28;;;;;;;30.27;7.77;;;;;;;;;;5043730;28;20539;-47
2023/05/10 05:00:55;;;;;;;23.23;7.75;;;;;;;;;;5044841;28;20033;-47
2023/05/10 05:03:23;;;;;;;22.83;7.05;;;;;;;;;;5054503;28;20068;-46
2023/05/10 05:05:51;;;;;;;23.65;7.93;;;;;;;;;;5049430;28;20043;-50
2023/05/10 05:08:18;;;;;;;24.25;7.32;;;;;;;;;;5053625;28;20041;-47
2023/05/10 05:10:49;;;;;;;24.17;7.70;;;;;;;;;;5076977;27;20040;-49
2023/05/10 05:13:18;;;;;;;25.98;8.00;;;;;;;;;;5048913;28;20040;-46
2023/05/10 05:15:46;;;;;;;23.88;7.82;;;;;;;;;;5050290;28;20040;-45
2023/05/10 05:18:13;;;;;;;30.88;7.50;;;;;;;;;;5064822;28;20441;-47
2023/05/10 05:20:42;;;;;;;30.10;7.40;;;;;;;;;;5074950;28;20131;-47
2023/05/10 05:23:09;;;;;;;22.40;7.43;;;;;;;;;;5048056;28;20049;-46
2023/05/10 05:25:37;;;;;;;24.10;7.03;;;;;;;;;;5048232;28;20486;-48
2023/05/10 05:28:06;;;;;;;22.90;7.28;;;;;;;;;;5050249;28;20052;-46
2023/05/10 05:30:34;;;;;;;24.02;7.20;;;;;;;;;;5061294;28;20136;-46
2023/05/10 05:33:01;;;;;;;19.20;6.60;;;;;;;;;;5042010;28;20103;-50
2023/05/10 05:35:29;;;;;;;25.17;7.07;;;;;;;;;;5055463;28;20044;-49
2023/05/10 05:37:57;;;;;;;22.00;7.18;;;;;;;;;;5048736;28;20131;-48
2023/05/10 05:40:24;;;;;;;22.25;6.95;;;;;;;;;;5049118;28;20143;-47
2023/05/10 05:42:54;;;;;;;19.35;6.35;;;;;;;;;;5047887;28;20135;-49
2023/05/10 05:45:22;;;;;;;18.92;5.68;;;;;;;;;;5047218;28;20124;-46
2023/05/10 05:47:50;;;;;;;17.90;5.07;;;;;;;;;;5055982;28;20090;-49
2023/05/10 05:50:18;;;;;;;18.02;6.75;;;;;;;;;;5049397;28;20032;-49
2023/05/10 05:52:45;;;;;;;22.05;6.47;;;;;;;;;;5050212;28;20937;-45
2023/05/10 05:55:13;;;;;;;20.70;5.90;;;;;;;;;;5058150;28;20151;-47
2023/05/10 05:57:41;;;;;;;18.35;6.00;;;;;;;;;;5044890;28;20028;-46
2023/05/10 06:00:09;;;;;;;23.13;6.37;;;;;;;;;;5052630;28;20044;-49
2023/05/10 06:02:38;;;;;;;26.05;6.22;;;;;;;;;;5056312;28;20072;-45
2023/05/10 06:05:07;;;;;;;25.42;5.82;;;;;;;;;;5046722;28;20033;-46
2023/05/10 06:07:35;;;;;;;21.85;5.78;;;;;;;;;;5040671;28;20041;-46
2023/05/10 06:10:02;;;;;;;21.15;5.70;;;;;;;;;;5048989;28;20064;-46
2023/05/10 06:12:30;;;;;;;26.30;5.97;;;;;;;;;;5037564;28;20087;-46
2023/05/10 06:15:02;;;;;;;18.42;5.65;;;;;;;;;;5038531;28;20395;-47
2023/05/10 06:17:30;;;;;;;19.52;5.57;;;;;;;;;;5047833;28;20055;-47
2023/05/10 06:19:59;;;;;;;17.25;5.22;;;;;;;;;;5044727;28;20105;-46
2023/05/10 06:22:26;;;;;;;18.48;5.28;;;;;;;;;;5051331;28;20090;-47
2023/05/10 06:24:54;;;;;;;20.50;6.33;;;;;;;;;;5049700;28;20052;-47
2023/05/10 06:27:24;;;;;;;21.42;5.68;;;;;;;;;;5039850;28;20052;-48
2023/05/10 06:29:52;;;;;;;23.15;5.63;;;;;;;;;;5037300;28;20071;-51
2023/05/10 06:32:32;;;;;;;15.75;5.10;;;;;;;;;;5046052;28;20541;-48
2023/05/10 06:35:01;;;;;;;21.15;5.30;;;;;;;;;;5045348;28;20056;-47
2023/05/10 06:37:29;;;;;;;20.03;5.27;;;;;;;;;;5056164;28;20426;-49
2023/05/10 06:39:56;;;;;;;18.50;5.18;;;;;;;;;;5042932;28;20128;-48
2023/05/10 06:42:25;;;;;;;17.30;5.45;;;;;;;;;;5049464;28;20041;-47
2023/05/10 06:44:52;;;;;;;21.80;5.30;;;;;;;;;;5038973;28;20040;-47
2023/05/10 06:47:20;;;;;;;18.48;6.50;;;;;;;;;;5047216;28;20045;-48
2023/05/10 06:49:48;;;;;;;18.93;5.60;;;;;;;;;;5048696;28;20099;-46
2023/05/10 06:52:17;;;;;;;29.30;6.45;;;;;;;;;;5051072;28;20132;-47
2023/05/10 06:54:45;;;;;;;18.95;5.43;;;;;;;;;;5042301;28;20032;-47
2023/05/10 06:57:13;;;;;;;20.65;5.25;;;;;;;;;;5046404;28;20051;-50
2023/05/10 06:59:58;;;;;;;25.80;5.43;;;;;;;;;;5035118;28;20048;-48
2023/05/10 07:02:26;;;;;;;24.33;6.20;;;;;;;;;;5032814;28;20025;-48
2023/05/10 07:04:54;;;;;;;20.05;4.65;;;;;;;;;;5047043;28;20037;-49
2023/05/10 07:07:23;;;;;;;15.85;4.80;;;;;;;;;;5040249;28;20041;-51
2023/05/10 07:09:51;;;;;;;16.38;4.85;;;;;;;;;;5042670;28;20044;-50
2023/05/10 07:12:18;;;;;;;22.98;5.78;;;;;;;;;;5044090;28;20033;-49
2023/05/10 07:14:47;;;;;;;24.30;5.73;;;;;;;;;;5040411;28;20044;-49
2023/05/10 07:17:15;;;;;;;22.38;4.78;;;;;;;;;;5046330;28;20151;-47
2023/05/10 07:19:43;;;;;;;20.60;5.68;;;;;;;;;;5052349;28;20032;-46
2023/05/10 07:22:11;;;;;;;16.48;4.85;;;;;;;;;;5048764;28;20036;-49
2023/05/10 07:24:40;;;;;;;26.85;5.93;;;;;;;;;;5044616;28;20040;-50
2023/05/10 07:27:07;;;;;;;30.33;6.73;;;;;;;;;;5054766;28;20135;-48
2023/05/10 07:29:35;;;;;;;20.85;5.85;;;;;;;;;;5021582;28;20060;-47
2023/05/10 07:32:03;;;;;;;17.88;4.72;;;;;;;;;;5047132;28;20024;-49
2023/05/10 07:34:31;;;;;;;16.60;4.78;;;;;;;;;;5031137;28;20037;-46
2023/05/10 07:36:59;;;;;;;26.15;5.75;;;;;;;;;;5050081;28;20051;-47
2023/05/10 07:39:27;;;;;;;29.37;4.93;;;;;;;;;;5046311;28;20072;-48
2023/05/10 07:41:56;;;;;;;22.13;5.85;;;;;;;;;;5041545;28;20064;-46
2023/05/10 07:44:25;;;;;;;18.35;5.57;;;;;;;;;;5031828;28;20049;-46
2023/05/10 07:46:53;;;;;;;17.63;4.47;;;;;;;;;;5037181;28;20127;-48
2023/05/10 07:49:21;;;;;;;17.50;5.20;;;;;;;;;;5043093;28;20097;-47
2023/05/10 07:51:49;;;;;;;18.17;5.63;;;;;;;;;;5049138;28;20037;-47
2023/05/10 07:54:17;;;;;;;18.27;5.82;;;;;;;;;;5032955;28;20051;-48
2023/05/10 07:56:46;;;;;;;24.45;5.35;;;;;;;;;;5026774;28;20106;-48
2023/05/10 07:59:17;;;;;;;18.45;6.03;;;;;;;;;;5022423;28;20075;-51
2023/05/10 08:01:45;;;;;;;19.23;5.15;;;;;;;;;;5034169;28;20102;-47
2023/05/10 08:04:13;;;;;;;12.87;4.30;;;;;;;;;;5034116;28;20045;-46
2023/05/10 08:06:41;;;;;;;16.95;5.18;;;;;;;;;;5028202;28;20046;-47
2023/05/10 08:09:09;;;;;;;23.30;5.63;;;;;;;;;;5033190;28;20040;-46
2023/05/10 08:11:36;;;;;;;20.95;5.32;;;;;;;;;;5033143;28;20044;-48
2023/05/10 08:14:04;;;;;;;19.55;4.95;;;;;;;;;;5032624;28;20102;-49
2023/05/10 08:16:34;;;;;;;17.87;3.97;;;;;;;;;;5027011;28;20114;-47
2023/05/10 08:19:01;;;;;;;11.88;3.55;;;;;;;;;;5031454;28;20059;-48
2023/05/10 08:21:31;;;;;;;21.65;4.15;;;;;;;;;;5022538;28;20049;-48
2023/05/10 08:23:58;;;;;;;17.67;4.53;;;;;;;;;;5019823;28;20080;-47
2023/05/10 08:26:26;;;;;;;12.88;3.20;;;;;;;;;;5020449;28;20060;-46
2023/05/10 08:28:54;;;;;;;13.70;4.13;;;;;;;;;;5036595;28;20110;-46
2023/05/10 08:31:22;;;;;;;15.93;4.45;;;;;;;;;;5033780;28;20045;-48
2023/05/10 08:33:52;;;;;;;14.77;4.97;;;;;;;;;;5035740;28;20036;-47
2023/05/10 08:36:21;;;;;;;15.95;4.22;;;;;;;;;;5033942;28;20044;-47
2023/05/10 08:38:51;;;;;;;13.80;4.32;;;;;;;;;;5032076;28;20250;-48
2023/05/10 08:41:20;;;;;;;10.87;3.43;;;;;;;;;;5041037;28;20492;-51
2023/05/10 08:43:48;;;;;;;11.60;2.65;;;;;;;;;;5029608;28;20048;-49
2023/05/10 08:46:17;;;;;;;9.00;2.95;;;;;;;;;;5031543;28;20040;-48
2023/05/10 08:48:46;;;;;;;10.30;2.80;;;;;;;;;;5031682;28;20115;-47
2023/05/10 08:51:16;;;;;;;18.98;3.63;;;;;;;;;;5039209;28;21341;-47
2023/05/10 08:53:44;;;;;;;15.20;3.63;;;;;;;;;;5036658;28;20125;-48
2023/05/10 08:56:12;;;;;;;15.80;4.10;;;;;;;;;;5023301;28;20102;-51
2023/05/10 08:58:40;;;;;;;12.98;3.47;;;;;;;;;;5033861;28;20100;-50
2023/05/10 09:01:08;;;;;;;12.85;3.50;;;;;;;;;;5034657;28;20595;-49
2023/05/10 09:03:36;;;;;;;12.65;2.92;;;;;;;;;;5034642;28;20056;-49
2023/05/10 09:06:04;;;;;;;14.23;3.03;;;;;;;;;;5022873;28;20580;-50
2023/05/10 09:08:35;;;;;;;12.82;2.35;;;;;;;;;;5035413;28;20495;-46
2023/05/10 09:11:03;;;;;;;10.88;3.20;;;;;;;;;;5032830;28;20094;-47
2023/05/10 09:13:30;;;;;;;10.15;2.88;;;;;;;;;;5033849;28;20131;-50
2023/05/10 09:15:58;;;;;;;19.55;3.90;;;;;;;;;;5016624;28;20072;-51
2023/05/10 09:18:40;;;;;;;12.43;2.37;;;;;;;;;;5034644;28;20414;-49
2023/05/10 09:21:08;;;;;;;13.25;2.85;;;;;;;;;;5032022;28;20041;-48
2023/05/10 09:23:36;;;;;;;9.23;2.90;;;;;;;;;;5033892;28;20044;-46
2023/05/10 09:26:05;;;;;;;9.77;2.65;;;;;;;;;;5030557;28;20054;-47
2023/05/10 09:28:33;;;;;;;11.15;2.60;;;;;;;;;;5034153;28;20051;-46
2023/05/10 09:31:01;;;;;;;9.93;1.50;;;;;;;;;;5037160;28;20040;-48
2023/05/10 09:33:29;;;;;;;7.85;2.10;;;;;;;;;;5034148;28;20101;-45
2023/05/10 09:36:07;;;;;;;12.52;1.90;;;;;;;;;;5021082;28;20052;-45
2023/05/10 09:38:47;;;;;;;10.48;2.38;;;;;;;;;;5038114;28;20040;-46
2023/05/10 09:41:18;;;;;;;14.75;2.42;;;;;;;;;;5033306;28;20197;-47
2023/05/10 09:43:47;;;;;;;10.87;2.03;;;;;;;;;;5039764;28;20504;-48
2023/05/10 09:46:15;;;;;;;8.98;1.77;;;;;;;;;;5048786;28;20123;-48
2023/05/10 09:48:44;;;;;;;8.85;1.80;;;;;;;;;;5045483;28;20102;-46
2023/05/10 09:51:19;;;;;;;7.32;1.75;;;;;;;;;;5049076;28;20041;-46
2023/05/10 09:53:50;;;;;;;8.25;2.33;;;;;;;;;;5052926;28;20435;-48
2023/05/10 09:56:32;;;;;;;6.47;1.70;;;;;;;;;;5047477;28;20118;-46
2023/05/10 09:59:03;;;;;;;6.50;1.60;;;;;;;;;;5043549;28;20037;-46
2023/05/10 10:01:31;;;;;;;8.35;1.88;;;;;;;;;;5063875;28;20494;-49
2023/05/10 10:03:58;;;;;;;9.10;1.42;;;;;;;;;;5050143;28;20041;-47
2023/05/10 10:06:26;;;;;;;9.35;1.55;;;;;;;;;;5044494;28;20056;-49
2023/05/10 10:08:58;;;;;;;7.73;1.40;;;;;;;;;;5054959;28;20321;-47
2023/05/10 10:11:27;;;;;;;10.55;1.67;;;;;;;;;;5032389;28;20045;-46
2023/05/10 10:13:55;;;;;;;5.13;1.05;;;;;;;;;;5024644;28;20542;-47
2023/05/10 10:16:23;;;;;;;4.47;1.20;;;;;;;;;;5027476;28;20040;-47
2023/05/10 10:18:51;;;;;;;7.95;1.05;;;;;;;;;;5024214;28;20041;-47
2023/05/10 10:21:19;;;;;;;6.73;1.40;;;;;;;;;;5037057;28;20040;-46
2023/05/10 10:23:47;;;;;;;5.05;1.45;;;;;;;;;;5033775;28;20494;-48
2023/05/10 10:26:17;;;;;;;4.57;1.02;;;;;;;;;;5019218;28;20115;-45
2023/05/10 10:28:49;;;;;;;6.30;1.15;;;;;;;;;;5039503;28;20067;-46
2023/05/10 10:31:20;;;;;;;6.30;1.15;;;;;;;;;;5026924;28;20045;-48
2023/05/10 10:33:56;;;;;;;6.30;0.87;;;;;;;;;;5032022;28;20037;-47
2023/05/10 10:36:26;;;;;;;5.75;0.80;;;;;;;;;;5026886;28;20449;-46
2023/05/10 10:39:00;;;;;;;9.55;1.77;;;;;;;;;;5029703;28;20126;-46
2023/05/10 10:41:30;;;;;;;7.40;0.93;;;;;;;;;;5035441;28;20044;-48
2023/05/10 10:44:18;;;;;;;8.00;1.05;;;;;;;;;;5031336;28;20135;-49
2023/05/10 10:47:02;;;;;;;5.77;1.07;;;;;;;;;;5019852;28;20525;-48
2023/05/10 10:49:32;;;;;;;8.45;1.20;;;;;;;;;;5034470;28;20093;-47
2023/05/10 10:52:16;;;;;;;8.60;1.50;;;;;;;;;;5029651;28;20037;-47
2023/05/10 10:54:50;;;;;;;5.97;1.30;;;;;;;;;;5030030;28;20043;-47
2023/05/10 10:57:21;;;;;;;6.10;1.35;;;;;;;;;;5024789;28;20048;-47
2023/05/10 10:59:49;;;;;;;6.57;0.97;;;;;;;;;;5034097;28;20055;-48
2023/05/10 11:02:44;;;;;;;8.95;0.88;;;;;;;;;;5027137;28;20045;-48
2023/05/10 11:05:35;;;;;;;5.00;0.85;;;;;;;;;;5033052;28;20048;-47
2023/05/10 11:08:07;;;;;;;7.78;1.00;;;;;;;;;;5028692;28;20075;-50
2023/05/10 11:10:35;;;;;;;7.85;1.23;;;;;;;;;;5030344;28;20693;-48
2023/05/10 11:13:05;;;;;;;7.57;1.30;;;;;;;;;;5026548;28;20410;-50
2023/05/10 11:15:33;;;;;;;5.28;0.73;;;;;;;;;;5027323;28;20036;-47
2023/05/10 11:18:16;;;;;;;5.90;1.38;;;;;;;;;;5032860;28;20041;-48
2023/05/10 11:20:47;;;;;;;7.03;1.70;;;;;;;;;;5031072;28;20044;-46
2023/05/10 11:23:17;;;;;;;9.45;1.98;;;;;;;;;;5034938;28;20048;-48
2023/05/10 11:25:46;;;;;;;7.07;1.77;;;;;;;;;;5025300;28;20697;-45
2023/05/10 11:28:18;;;;;;;9.65;1.63;;;;;;;;;;5033868;28;20058;-46
2023/05/10 11:30:46;;;;;;;11.35;2.15;;;;;;;;;;5028810;28;20040;-46
2023/05/10 11:33:18;;;;;;;7.70;2.13;;;;;;;;;;5037269;28;20045;-45
2023/05/10 11:35:46;;;;;;;9.68;1.45;;;;;;;;;;5023288;28;20040;-48
2023/05/10 11:38:14;;;;;;;6.80;1.50;;;;;;;;;;5031612;28;20645;-45
2023/05/10 11:40:42;;;;;;;10.65;1.42;;;;;;;;;;5033925;28;20127;-45
2023/05/10 11:43:11;;;;;;;7.43;1.58;;;;;;;;;;5025779;28;20132;-47
2023/05/10 11:45:40;;;;;;;7.65;1.63;;;;;;;;;;5027519;28;20134;-45
2023/05/10 11:48:08;;;;;;;5.00;1.25;;;;;;;;;;5027198;28;20056;-48
2023/05/10 11:50:36;;;;;;;6.53;1.07;;;;;;;;;;5035360;28;20060;-45
2023/05/10 11:53:04;;;;;;;6.55;0.98;;;;;;;;;;5031436;28;20102;-45
2023/05/10 11:55:34;;;;;;;7.55;1.40;;;;;;;;;;5027239;28;20075;-45
2023/05/10 11:58:02;;;;;;;6.35;1.00;;;;;;;;;;5030040;28;20040;-45
2023/05/10 12:00:32;;;;;;;5.82;1.10;;;;;;;;;;5032099;28;20127;-49
2023/05/10 12:03:02;;;;;;;5.17;1.03;;;;;;;;;;5033758;28;20045;-47
2023/05/10 12:05:32;;;;;;;5.22;1.38;;;;;;;;;;5031954;28;20083;-45
2023/05/10 12:08:13;;;;;;;7.38;1.30;;;;;;;;;;5035238;28;20120;-44
2023/05/10 12:10:41;;;;;;;6.97;0.93;;;;;;;;;;5033645;28;20145;-44
2023/05/10 12:13:12;;;;;;;6.93;1.02;;;;;;;;;;5038734;28;20349;-47
2023/05/10 12:15:39;;;;;;;8.00;1.00;;;;;;;;;;5027906;28;20121;-47
2023/05/10 12:18:11;;;;;;;9.48;0.88;;;;;;;;;;5039874;28;20606;-45
2023/05/10 12:20:39;;;;;;;8.60;1.30;;;;;;;;;;5037676;28;20098;-45
2023/05/10 12:23:09;;;;;;;6.63;0.80;;;;;;;;;;5037810;28;20041;-46
2023/05/10 12:25:38;;;;;;;9.30;1.42;;;;;;;;;;5033623;28;20048;-45
2023/05/10 12:28:07;;;;;;;8.50;0.80;;;;;;;;;;5027388;28;20040;-45
2023/05/10 12:30:36;;;;;;;8.63;0.80;;;;;;;;;;5040686;28;20052;-48
2023/05/10 12:33:07;;;;;;;6.65;0.98;;;;;;;;;;5028230;28;20123;-45
2023/05/10 12:35:46;;;;;;;4.82;0.63;;;;;;;;;;5024889;28;20149;-47
2023/05/10 12:38:26;;;;;;;4.88;1.10;;;;;;;;;;5030435;28;20052;-45
2023/05/10 12:40:54;;;;;;;10.33;0.87;;;;;;;;;;5028877;28;20036;-48
2023/05/10 12:43:22;;;;;;;3.58;0.90;;;;;;;;;;5027284;28;20060;-46
2023/05/10 12:45:50;;;;;;;7.38;0.88;;;;;;;;;;5024760;28;20097;-46
2023/05/10 12:48:17;;;;;;;4.32;0.70;;;;;;;;;;5032376;28;20084;-46
2023/05/10 12:50:48;;;;;;;5.03;0.70;;;;;;;;;;5026739;28;20059;-48
2023/05/10 12:53:16;;;;;;;5.70;0.80;;;;;;;;;;5034317;28;20618;-47
2023/05/10 12:55:44;;;;;;;5.80;0.70;;;;;;;;;;5022749;28;20040;-50
2023/05/10 12:58:12;;;;;;;4.57;0.88;;;;;;;;;;5030997;28;20074;-47
2023/05/10 13:00:56;;;;;;;6.40;0.80;;;;;;;;;;5029235;28;20037;-48
2023/05/10 13:03:24;;;;;;;4.45;0.95;;;;;;;;;;5024814;28;20475;-49
2023/05/10 13:05:53;;;;;;;4.07;0.50;;;;;;;;;;5012136;28;20041;-48
2023/05/10 13:08:21;;;;;;;5.15;0.65;;;;;;;;;;5027344;28;20181;-47
2023/05/10 13:10:49;;;;;;;6.65;0.50;;;;;;;;;;5053000;28;20059;-46
2023/05/10 13:13:18;;;;;;;4.47;0.82;;;;;;;;;;5029862;28;20745;-47
2023/05/10 13:15:45;;;;;;;4.25;0.68;;;;;;;;;;5011788;28;20090;-47
2023/05/10 13:18:14;;;;;;;4.30;0.80;;;;;;;;;;5027506;28;20379;-46
2023/05/10 13:20:44;;;;;;;2.47;0.45;;;;;;;;;;5050655;28;20067;-47
2023/05/10 13:23:13;;;;;;;3.95;0.60;;;;;;;;;;5049200;28;20562;-49
2023/05/10 13:25:41;;;;;;;5.03;0.90;;;;;;;;;;5053556;28;20127;-47
2023/05/10 13:28:09;;;;;;;5.85;0.90;;;;;;;;;;5041416;28;20044;-49
2023/05/10 13:30:37;;;;;;;3.30;0.67;;;;;;;;;;5041599;28;20327;-48
2023/05/10 13:33:05;;;;;;;6.10;0.93;;;;;;;;;;5044991;28;20121;-51
2023/05/10 13:35:32;;;;;;;4.22;0.73;;;;;;;;;;5036191;28;20456;-48
2023/05/10 13:38:00;;;;;;;3.83;0.68;;;;;;;;;;5046000;28;20056;-48
2023/05/10 13:40:31;;;;;;;4.85;0.77;;;;;;;;;;5054952;28;20076;-49
2023/05/10 13:42:58;;;;;;;7.70;0.70;;;;;;;;;;5039450;28;20051;-48
2023/05/10 13:45:27;;;;;;;4.18;0.55;;;;;;;;;;5042554;28;20094;-47
2023/05/10 13:47:55;;;;;;;5.13;0.80;;;;;;;;;;5047447;28;20713;-49
2023/05/10 13:50:23;;;;;;;7.43;0.85;;;;;;;;;;5046461;28;20556;-47
2023/05/10 13:52:50;;;;;;;6.00;0.82;;;;;;;;;;5037004;28;20122;-53
2023/05/10 13:55:18;;;;;;;5.67;0.70;;;;;;;;;;5036906;28;20114;-45
2023/05/10 13:57:48;;;;;;;3.88;0.57;;;;;;;;;;5052164;28;20037;-50
2023/05/10 14:00:17;;;;;;;5.40;0.50;;;;;;;;;;5030494;28;20050;-47
2023/05/10 14:02:45;;;;;;;6.72;0.50;;;;;;;;;;5049583;28;20044;-46
2023/05/10 14:05:12;;;;;;;6.43;0.80;;;;;;;;;;5032724;28;20044;-50
2023/05/10 14:07:40;;;;;;;6.83;0.73;;;;;;;;;;5034840;28;20037;-46
2023/05/10 14:10:09;;;;;;;3.08;0.47;;;;;;;;;;5043749;28;20075;-47
2023/05/10 14:12:37;;;;;;;6.88;1.08;;;;;;;;;;5035365;28;20115;-49
2023/05/10 14:15:06;;;;;;;9.40;0.98;;;;;;;;;;5040823;28;20086;-49
2023/05/10 14:17:34;;;;;;;3.15;0.80;;;;;;;;;;5046430;28;20044;-49
2023/05/10 14:20:03;;;;;;;3.43;0.60;;;;;;;;;;5039957;28;20138;-47
2023/05/10 14:22:31;;;;;;;4.97;1.02;;;;;;;;;;5044923;28;20491;-45
2023/05/10 14:24:59;;;;;;;6.95;0.95;;;;;;;;;;5039905;28;20407;-48
2023/05/10 14:27:27;;;;;;;5.40;1.25;;;;;;;;;;5025385;28;20048;-50
2023/05/10 14:29:55;;;;;;;5.10;0.85;;;;;;;;;;5032033;28;20406;-48
2023/05/10 14:32:24;;;;;;;4.80;0.80;;;;;;;;;;5035720;28;20524;-50
2023/05/10 14:34:52;;;;;;;4.30;0.73;;;;;;;;;;5028034;28;20071;-46
2023/05/10 14:37:20;;;;;;;7.72;1.05;;;;;;;;;;5027364;28;20152;-47
2023/05/10 14:39:48;;;;;;;8.02;1.63;;;;;;;;;;5027786;28;20044;-48
2023/05/10 14:42:16;;;;;;;5.68;1.08;;;;;;;;;;5036322;28;20067;-51
2023/05/10 14:44:43;;;;;;;5.43;1.10;;;;;;;;;;5033701;28;20068;-45
2023/05/10 14:47:11;;;;;;;5.55;1.05;;;;;;;;;;5020426;28;20060;-49
2023/05/10 14:49:40;;;;;;;5.30;0.80;;;;;;;;;;5030569;28;20071;-48